createdAt,value
2018-01-15T00:01:30.568Z,0.30
2018-01-15T00:03:56.742Z,0.30
2018-01-15T00:06:22.924Z,0.30
2018-01-15T00:08:49.112Z,0.30
2018-01-15T00:11:15.295Z,0.30
2018-01-15T00:13:41.473Z,0.30
2018-01-15T00:16:07.724Z,0.30
2018-01-15T00:18:34.668Z,0.20
2018-01-15T00:21:00.876Z,0.20
2018-01-15T00:23:27.068Z,0.20
2018-01-15T00:25:53.987Z,0.20
2018-01-15T00:28:20.166Z,0.20
2018-01-15T00:30:46.376Z,0.20
2018-01-15T00:33:12.567Z,0.20
2018-01-15T00:35:38.746Z,0.20
2018-01-15T00:38:05.691Z,0.20
2018-01-15T00:40:32.608Z,0.20
2018-01-15T00:42:58.863Z,0.20
2018-01-15T00:45:25.820Z,0.20
2018-01-15T00:47:52.020Z,0.10
2018-01-15T00:50:18.940Z,0.20
2018-01-15T00:52:45.120Z,0.20
2018-01-15T00:55:11.315Z,0.10
2018-01-15T00:57:37.500Z,0.10
2018-01-15T01:00:03.704Z,0.10
2018-01-15T01:02:29.857Z,0.10
2018-01-15T01:04:56.024Z,0.10
2018-01-15T01:07:22.212Z,0.20
2018-01-15T01:09:48.363Z,0.20
2018-01-15T01:12:14.551Z,0.20
2018-01-15T01:14:40.755Z,0.00
2018-01-15T01:17:07.668Z,0.30
2018-01-15T01:19:33.848Z,0.30
2018-01-15T01:22:00.803Z,0.30
2018-01-15T01:24:27.004Z,0.30
2018-01-15T01:26:53.175Z,0.30
2018-01-15T01:29:19.363Z,0.10
2018-01-15T01:31:45.524Z,0.20
2018-01-15T01:34:12.465Z,0.30
2018-01-15T01:36:39.386Z,0.30
2018-01-15T01:39:05.578Z,0.30
2018-01-15T01:41:31.749Z,0.30
2018-01-15T01:43:57.987Z,0.30
2018-01-15T01:46:24.935Z,0.30
2018-01-15T01:48:57.220Z,0.30
2018-01-15T01:51:23.424Z,0.30
2018-01-15T01:53:49.601Z,0.30
2018-01-15T01:56:16.521Z,0.40
2018-01-15T01:58:42.716Z,0.30
2018-01-15T02:01:08.911Z,0.40
2018-01-15T02:03:35.084Z,0.40
2018-01-15T02:06:02.008Z,0.40
2018-01-15T02:08:28.907Z,0.40
2018-01-15T02:10:55.076Z,0.40
2018-01-15T02:13:21.984Z,0.40
2018-01-15T02:15:48.153Z,0.40
2018-01-15T02:18:14.360Z,0.40
2018-01-15T02:20:40.579Z,0.40
2018-01-15T02:23:06.775Z,0.40
2018-01-15T02:25:32.949Z,0.40
2018-01-15T02:27:59.167Z,0.40
2018-01-15T02:30:25.339Z,0.40
2018-01-15T02:32:51.528Z,0.40
2018-01-15T02:35:18.492Z,0.40
2018-01-15T02:37:44.681Z,0.40
2018-01-15T02:40:10.904Z,0.40
2018-01-15T02:42:37.087Z,0.40
2018-01-15T02:45:03.370Z,0.40
2018-01-15T02:47:29.600Z,0.30
2018-01-15T02:49:55.776Z,0.30
2018-01-15T02:52:22.980Z,0.30
2018-01-15T02:54:49.177Z,0.20
2018-01-15T02:57:15.372Z,0.20
2018-01-15T02:59:41.547Z,0.20
2018-01-15T03:02:07.720Z,0.20
2018-01-15T03:04:33.899Z,0.20
2018-01-15T03:07:00.083Z,0.20
2018-01-15T03:09:26.262Z,0.30
2018-01-15T03:11:53.204Z,0.30
2018-01-15T03:14:20.133Z,0.30
2018-01-15T03:16:46.308Z,0.30
2018-01-15T03:19:14.044Z,0.30
2018-01-15T03:21:40.232Z,0.30
2018-01-15T03:24:06.430Z,0.30
2018-01-15T03:26:32.604Z,0.30
2018-01-15T03:28:58.781Z,0.30
2018-01-15T03:31:24.975Z,0.30
2018-01-15T03:33:52.053Z,0.30
2018-01-15T03:36:18.245Z,0.30
2018-01-15T03:38:44.459Z,0.30
2018-01-15T03:41:11.412Z,0.30
2018-01-15T03:43:37.586Z,0.30
2018-01-15T03:46:04.728Z,0.30
2018-01-15T03:48:30.936Z,0.30
2018-01-15T03:50:57.852Z,0.30
2018-01-15T03:53:24.024Z,0.30
2018-01-15T03:55:50.968Z,0.30
2018-01-15T03:58:17.877Z,0.20
2018-01-15T04:00:44.068Z,0.20
2018-01-15T04:03:10.266Z,0.30
2018-01-15T04:05:36.444Z,0.30
2018-01-15T04:08:02.621Z,0.30
2018-01-15T04:10:28.812Z,0.30
2018-01-15T04:12:54.987Z,0.30
2018-01-15T04:15:21.154Z,0.30
2018-01-15T04:17:47.360Z,0.30
2018-01-15T04:20:13.589Z,0.30
2018-01-15T04:22:39.752Z,0.30
2018-01-15T04:25:06.686Z,0.30
2018-01-15T04:27:33.600Z,0.30
2018-01-15T04:29:59.792Z,0.30
2018-01-15T04:32:26.735Z,0.30
2018-01-15T04:34:53.644Z,0.30
2018-01-15T04:37:19.839Z,0.30
2018-01-15T04:39:46.032Z,0.30
2018-01-15T04:42:12.208Z,0.30
2018-01-15T04:44:38.412Z,0.30
2018-01-15T04:47:06.378Z,0.30
2018-01-15T04:49:33.315Z,0.30
2018-01-15T04:51:59.485Z,0.30
2018-01-15T04:54:25.674Z,0.30
2018-01-15T04:56:51.895Z,0.30
2018-01-15T04:59:18.087Z,0.30
2018-01-15T05:01:45.020Z,0.30
2018-01-15T05:04:11.951Z,0.30
2018-01-15T05:06:38.118Z,0.30
2018-01-15T05:09:05.048Z,0.30
2018-01-15T05:11:31.961Z,0.30
2018-01-15T05:13:58.151Z,0.30
2018-01-15T05:16:24.368Z,0.30
2018-01-15T05:18:50.540Z,0.30
2018-01-15T05:21:16.710Z,0.30
2018-01-15T05:23:42.895Z,0.30
2018-01-15T05:26:09.079Z,0.30
2018-01-15T05:28:35.253Z,0.40
2018-01-15T05:31:01.502Z,0.40
2018-01-15T05:33:27.687Z,0.20
2018-01-15T05:35:53.873Z,0.40
2018-01-15T05:38:20.243Z,0.40
2018-01-15T05:40:46.432Z,0.40
2018-01-15T05:43:12.617Z,0.50
2018-01-15T05:45:38.798Z,0.50
2018-01-15T05:48:05.171Z,0.50
2018-01-15T05:50:31.400Z,0.50
2018-01-15T05:52:57.660Z,0.50
2018-01-15T05:55:23.883Z,0.60
2018-01-15T05:57:50.076Z,0.60
2018-01-15T06:00:16.991Z,0.60
2018-01-15T06:02:43.923Z,0.50
2018-01-15T06:05:10.098Z,0.60
2018-01-15T06:07:36.323Z,0.60
2018-01-15T06:10:03.287Z,0.50
2018-01-15T06:12:30.232Z,0.60
2018-01-15T06:14:57.169Z,0.60
2018-01-15T06:17:23.359Z,0.60
2018-01-15T06:19:49.534Z,0.60
2018-01-15T06:22:15.724Z,0.60
2018-01-15T06:24:41.916Z,0.60
2018-01-15T06:27:08.112Z,0.70
2018-01-15T06:29:34.335Z,0.70
2018-01-15T06:32:00.540Z,0.70
2018-01-15T06:34:26.758Z,0.70
2018-01-15T06:36:52.959Z,0.70
2018-01-15T06:39:19.123Z,0.70
2018-01-15T06:41:46.067Z,0.70
2018-01-15T06:44:12.256Z,0.60
2018-01-15T06:46:38.442Z,0.70
2018-01-15T06:49:05.435Z,0.80
2018-01-15T06:51:31.664Z,0.80
2018-01-15T06:53:57.868Z,0.70
2018-01-15T06:56:24.071Z,0.80
2018-01-15T06:58:50.304Z,0.80
2018-01-15T07:01:16.526Z,0.80
2018-01-15T07:03:42.727Z,0.80
2018-01-15T07:06:08.940Z,0.80
2018-01-15T07:08:35.140Z,0.80
2018-01-15T07:11:01.327Z,0.80
2018-01-15T07:13:27.561Z,0.90
2018-01-15T07:15:53.763Z,0.90
2018-01-15T07:18:19.953Z,0.80
2018-01-15T07:20:46.165Z,0.80
2018-01-15T07:23:13.159Z,0.80
2018-01-15T07:25:39.328Z,0.50
2018-01-15T07:28:06.259Z,0.70
2018-01-15T07:30:33.196Z,0.70
2018-01-15T07:32:59.387Z,0.70
2018-01-15T07:35:25.583Z,0.70
2018-01-15T07:37:51.760Z,0.70
2018-01-15T07:40:17.987Z,0.70
2018-01-15T07:42:44.184Z,0.70
2018-01-15T07:45:11.103Z,0.70
2018-01-15T07:47:37.307Z,0.70
2018-01-15T07:50:03.731Z,0.80
2018-01-15T07:52:29.944Z,0.80
2018-01-15T07:54:56.131Z,0.90
2018-01-15T07:57:22.346Z,0.90
2018-01-15T07:59:48.541Z,1.00
2018-01-15T08:02:15.463Z,1.10
2018-01-15T08:04:41.671Z,1.10
2018-01-15T08:07:07.859Z,1.10
2018-01-15T08:09:34.768Z,1.20
2018-01-15T08:12:00.991Z,1.20
2018-01-15T08:14:27.208Z,1.20
2018-01-15T08:16:53.396Z,1.20
2018-01-15T08:19:20.408Z,1.20
2018-01-15T08:21:47.281Z,1.20
2018-01-15T08:24:13.464Z,1.20
2018-01-15T08:26:39.676Z,1.30
2018-01-15T08:29:06.624Z,1.30
2018-01-15T08:31:33.616Z,1.40
2018-01-15T08:33:59.814Z,1.20
2018-01-15T08:36:26.763Z,1.40
2018-01-15T08:38:53.710Z,1.40
2018-01-15T08:41:20.688Z,1.50
2018-01-15T08:43:46.874Z,1.50
2018-01-15T08:46:13.060Z,1.50
2018-01-15T08:48:39.251Z,1.60
2018-01-15T08:51:07.010Z,1.70
2018-01-15T08:53:33.216Z,1.70
2018-01-15T08:55:59.411Z,1.70
2018-01-15T08:58:26.340Z,1.70
2018-01-15T09:00:53.333Z,1.70
2018-01-15T09:03:19.552Z,1.70
2018-01-15T09:05:45.792Z,1.70
2018-01-15T09:08:11.993Z,1.70
2018-01-15T09:10:38.956Z,1.80
2018-01-15T09:13:05.881Z,1.80
2018-01-15T09:15:32.098Z,1.80
2018-01-15T09:17:58.325Z,1.80
2018-01-15T09:20:24.516Z,1.90
2018-01-15T09:22:50.720Z,2.00
2018-01-15T09:25:16.931Z,2.00
2018-01-15T09:27:43.114Z,1.70
2018-01-15T09:30:10.067Z,2.10
2018-01-15T09:32:37.045Z,2.20
2018-01-15T09:35:03.286Z,2.10
2018-01-15T09:37:29.500Z,2.20
2018-01-15T09:39:55.730Z,2.20
2018-01-15T09:42:21.942Z,2.20
2018-01-15T09:44:48.159Z,2.30
2018-01-15T09:47:14.361Z,2.30
2018-01-15T09:49:40.543Z,2.30
2018-01-15T09:52:07.571Z,2.30
2018-01-15T09:54:33.872Z,2.20
2018-01-15T09:57:00.053Z,2.30
2018-01-15T09:59:26.271Z,2.30
2018-01-15T10:01:52.491Z,2.30
2018-01-15T10:04:18.668Z,2.40
2018-01-15T10:06:45.602Z,2.40
2018-01-15T10:09:11.840Z,2.30
2018-01-15T10:11:38.051Z,2.40
2018-01-15T10:14:04.248Z,2.40
2018-01-15T10:16:30.443Z,2.50
2018-01-15T10:18:56.623Z,2.50
2018-01-15T10:21:22.807Z,2.50
2018-01-15T10:23:49.020Z,2.50
2018-01-15T10:26:15.197Z,2.50
2018-01-15T10:28:41.440Z,2.60
2018-01-15T10:31:08.422Z,2.60
2018-01-15T10:33:34.629Z,2.60
2018-01-15T10:36:01.575Z,2.60
2018-01-15T10:38:28.535Z,2.70
2018-01-15T10:40:55.451Z,2.80
2018-01-15T10:43:21.646Z,2.70
2018-01-15T10:45:47.893Z,2.80
2018-01-15T10:48:14.841Z,2.80
2018-01-15T10:50:41.040Z,2.80
2018-01-15T10:53:07.524Z,2.80
2018-01-15T10:55:33.711Z,2.80
2018-01-15T10:58:00.628Z,2.80
2018-01-15T11:00:32.998Z,2.80
2018-01-15T11:02:59.957Z,2.90
2018-01-15T11:05:27.682Z,2.90
2018-01-15T11:07:53.912Z,2.90
2018-01-15T11:10:20.139Z,2.90
2018-01-15T11:12:46.349Z,3.00
2018-01-15T11:15:13.284Z,3.00
2018-01-15T11:17:39.452Z,3.00
2018-01-15T11:20:05.623Z,3.00
2018-01-15T11:22:31.842Z,3.10
2018-01-15T11:24:58.055Z,3.20
2018-01-15T11:27:24.308Z,2.90
2018-01-15T11:29:50.436Z,3.20
2018-01-15T11:32:16.619Z,3.30
2018-01-15T11:34:43.548Z,3.30
2018-01-15T11:37:09.766Z,3.40
2018-01-15T11:39:35.952Z,3.40
2018-01-15T11:42:03.571Z,3.50
2018-01-15T11:44:29.818Z,3.40
2018-01-15T11:46:56.023Z,3.50
2018-01-15T11:49:22.210Z,3.50
2018-01-15T11:51:48.412Z,3.50
2018-01-15T11:54:16.160Z,3.60
2018-01-15T11:56:42.367Z,3.60
2018-01-15T11:59:08.612Z,3.60
2018-01-15T12:01:34.808Z,3.70
2018-01-15T12:04:01.751Z,3.50
2018-01-15T12:06:27.947Z,3.70
2018-01-15T12:08:54.138Z,3.80
2018-01-15T12:11:20.316Z,3.80
2018-01-15T12:13:46.527Z,3.80
2018-01-15T12:16:12.747Z,3.90
2018-01-15T12:18:39.679Z,3.90
2018-01-15T12:21:06.647Z,4.00
2018-01-15T12:23:33.559Z,4.00
2018-01-15T12:25:59.763Z,4.00
2018-01-15T12:28:25.962Z,4.10
2018-01-15T12:30:52.900Z,4.10
2018-01-15T12:33:19.848Z,4.20
2018-01-15T12:35:46.074Z,4.20
2018-01-15T12:38:12.272Z,4.20
2018-01-15T12:40:38.529Z,4.20
2018-01-15T12:43:04.754Z,4.00
2018-01-15T12:45:30.948Z,4.30
2018-01-15T12:47:57.159Z,4.30
2018-01-15T12:50:24.125Z,4.30
2018-01-15T12:52:50.331Z,4.30
2018-01-15T12:55:16.583Z,4.30
2018-01-15T12:57:43.542Z,4.30
2018-01-15T13:00:09.792Z,4.30
2018-01-15T13:02:35.999Z,4.40
2018-01-15T13:05:02.196Z,4.40
2018-01-15T13:07:40.822Z,4.50
2018-01-15T13:10:07.023Z,4.50
2018-01-15T13:12:33.226Z,4.50
2018-01-15T13:15:00.191Z,4.50
2018-01-15T13:17:27.146Z,4.50
2018-01-15T13:19:54.056Z,4.50
2018-01-15T13:22:20.274Z,4.50
2018-01-15T13:24:46.479Z,4.60
2018-01-15T13:27:12.668Z,4.60
2018-01-15T13:29:39.587Z,4.60
2018-01-15T13:32:05.823Z,4.60
2018-01-15T13:34:32.074Z,4.60
2018-01-15T13:36:58.340Z,4.60
2018-01-15T13:39:24.512Z,4.60
2018-01-15T13:41:52.218Z,4.60
2018-01-15T13:44:18.427Z,4.60
2018-01-15T13:46:44.652Z,4.50
2018-01-15T13:49:10.860Z,4.60
2018-01-15T13:51:37.087Z,4.60
2018-01-15T13:54:04.019Z,4.60
2018-01-15T13:56:31.051Z,4.60
2018-01-15T13:58:57.240Z,4.60
2018-01-15T14:01:23.448Z,4.60
2018-01-15T14:03:50.400Z,4.60
2018-01-15T14:06:16.600Z,4.60
2018-01-15T14:08:42.817Z,4.60
2018-01-15T14:11:09.024Z,4.70
2018-01-15T14:13:35.232Z,4.70
2018-01-15T14:16:02.184Z,4.60
2018-01-15T14:18:29.112Z,4.70
2018-01-15T14:20:55.370Z,4.70
2018-01-15T14:23:22.376Z,4.70
2018-01-15T14:25:48.567Z,4.70
2018-01-15T14:28:14.759Z,4.70
2018-01-15T14:30:40.994Z,4.70
2018-01-15T14:33:07.187Z,4.70
2018-01-15T14:35:33.416Z,4.70
2018-01-15T14:37:59.632Z,4.70
2018-01-15T14:40:26.600Z,4.70
2018-01-15T14:42:52.799Z,4.70
2018-01-15T14:45:19.773Z,4.70
2018-01-15T14:47:46.692Z,4.60
2018-01-15T14:50:13.666Z,4.60
2018-01-15T14:52:40.601Z,4.60
2018-01-15T14:55:06.772Z,4.60
2018-01-15T14:57:33.089Z,4.70
2018-01-15T14:59:59.312Z,4.60
2018-01-15T15:02:26.276Z,4.60
2018-01-15T15:04:52.467Z,4.60
2018-01-15T15:07:18.698Z,4.60
2018-01-15T15:09:44.883Z,4.60
2018-01-15T15:12:11.105Z,4.60
2018-01-15T15:14:37.319Z,4.60
2018-01-15T15:17:03.563Z,4.60
2018-01-15T15:19:30.489Z,4.60
2018-01-15T15:21:56.699Z,4.60
2018-01-15T15:24:22.879Z,4.60
2018-01-15T15:26:49.048Z,4.60
2018-01-15T15:29:16.223Z,4.70
2018-01-15T15:31:43.209Z,4.70
2018-01-15T15:34:09.573Z,4.70
2018-01-15T15:36:36.010Z,4.70
2018-01-15T15:39:02.953Z,4.80
2018-01-15T15:41:29.899Z,4.80
2018-01-15T15:43:56.392Z,4.80
2018-01-15T15:46:23.481Z,4.80
2018-01-15T15:48:50.139Z,4.90
2018-01-15T15:51:17.468Z,4.90
2018-01-15T15:53:44.665Z,4.90
2018-01-15T15:56:10.847Z,4.90
2018-01-15T15:58:38.487Z,4.90
2018-01-15T16:01:06.888Z,4.90
2018-01-15T16:03:33.080Z,4.90
2018-01-15T16:06:00.045Z,4.90
2018-01-15T16:08:26.971Z,4.90
2018-01-15T16:10:53.182Z,4.90
2018-01-15T16:13:19.376Z,4.90
2018-01-15T16:15:45.599Z,4.90
2018-01-15T16:18:11.827Z,4.90
2018-01-15T16:20:38.036Z,5.20
2018-01-15T16:23:04.224Z,5.50
2018-01-15T16:25:30.407Z,5.70
2018-01-15T16:27:57.387Z,6.20
2018-01-15T16:30:24.324Z,6.40
2018-01-15T16:32:51.282Z,6.50
2018-01-15T16:35:18.246Z,6.80
2018-01-15T16:37:44.501Z,6.70
2018-01-15T16:40:10.688Z,6.90
2018-01-15T16:42:36.916Z,7.00
2018-01-15T16:45:03.144Z,7.10
2018-01-15T16:47:29.336Z,7.20
2018-01-15T16:49:55.556Z,7.20
2018-01-15T16:52:22.467Z,7.00
2018-01-15T16:54:49.460Z,6.80
2018-01-15T16:57:15.668Z,6.80
2018-01-15T16:59:42.086Z,6.70
2018-01-15T17:02:09.023Z,6.40
2018-01-15T17:04:35.288Z,6.40
2018-01-15T17:07:01.538Z,6.40
2018-01-15T17:09:27.804Z,6.40
2018-01-15T17:11:54.100Z,6.30
2018-01-15T17:14:20.376Z,6.20
2018-01-15T17:16:46.847Z,6.10
2018-01-15T17:19:13.315Z,5.90
2018-01-15T17:21:39.730Z,5.80
2018-01-15T17:24:06.088Z,5.70
2018-01-15T17:26:32.343Z,5.60
2018-01-15T17:28:58.643Z,5.50
2018-01-15T17:31:25.736Z,5.40
2018-01-15T17:33:52.144Z,5.40
2018-01-15T17:36:18.420Z,5.40
2018-01-15T17:38:44.696Z,5.40
2018-01-15T17:41:11.138Z,5.40
2018-01-15T17:43:38.130Z,5.30
2018-01-15T17:46:04.397Z,5.30
2018-01-15T17:48:30.710Z,5.30
2018-01-15T17:50:56.955Z,5.30
2018-01-15T17:53:23.194Z,5.30
2018-01-15T17:55:49.465Z,5.30
2018-01-15T17:58:15.756Z,5.30
2018-01-15T18:00:42.120Z,5.30
2018-01-15T18:03:08.453Z,5.30
2018-01-15T18:05:34.972Z,5.30
2018-01-15T18:08:01.477Z,5.30
2018-01-15T18:10:27.769Z,5.30
2018-01-15T18:12:54.802Z,5.30
2018-01-15T18:15:21.204Z,5.30
2018-01-15T18:17:48.000Z,5.30
2018-01-15T18:20:14.513Z,5.30
2018-01-15T18:22:40.893Z,5.30
2018-01-15T18:25:07.175Z,5.30
2018-01-15T18:27:34.196Z,5.30
2018-01-15T18:30:00.523Z,5.20
2018-01-15T18:32:27.528Z,5.20
2018-01-15T18:34:53.772Z,5.20
2018-01-15T18:37:20.028Z,5.30
2018-01-15T18:39:46.285Z,5.20
2018-01-15T18:42:13.288Z,5.20
2018-01-15T18:44:39.505Z,5.20
2018-01-15T18:47:05.759Z,5.20
2018-01-15T18:49:32.058Z,5.20
2018-01-15T18:51:58.320Z,5.20
2018-01-15T18:54:24.556Z,5.10
2018-01-15T18:56:50.858Z,5.10
2018-01-15T18:59:17.865Z,5.10
2018-01-15T19:01:44.196Z,5.10
2018-01-15T19:04:10.461Z,5.10
2018-01-15T19:06:36.698Z,5.10
2018-01-15T19:09:02.944Z,5.10
2018-01-15T19:11:29.961Z,5.10
2018-01-15T19:13:56.215Z,5.10
2018-01-15T19:16:22.523Z,5.10
2018-01-15T19:18:49.841Z,5.10
2018-01-15T19:21:16.854Z,5.00
2018-01-15T19:23:43.124Z,5.00
2018-01-15T19:26:09.412Z,5.00
2018-01-15T19:28:35.730Z,5.00
2018-01-15T19:31:02.775Z,5.00
2018-01-15T19:33:28.999Z,5.00
2018-01-15T19:35:55.244Z,5.00
2018-01-15T19:38:22.563Z,5.00
2018-01-15T19:40:49.629Z,5.00
2018-01-15T19:43:17.493Z,5.00
2018-01-15T19:45:50.722Z,5.00
2018-01-15T19:48:23.050Z,5.00
2018-01-15T19:50:56.135Z,5.00
2018-01-15T19:56:30.656Z,5.00
2018-01-15T19:59:02.891Z,5.00
2018-01-15T20:01:35.144Z,5.00
2018-01-15T20:04:07.696Z,5.00
2018-01-15T20:06:40.049Z,5.00
2018-01-15T20:09:12.509Z,5.00
2018-01-15T20:11:38.768Z,5.00
2018-01-15T20:14:04.969Z,5.00
2018-01-15T20:16:31.892Z,5.00
2018-01-15T20:18:58.109Z,4.90
2018-01-15T20:21:24.332Z,5.00
2018-01-15T20:23:50.515Z,5.00
2018-01-15T20:26:17.437Z,4.90
2018-01-15T20:28:43.647Z,4.90
2018-01-15T20:31:09.825Z,4.90
2018-01-15T20:33:36.787Z,4.90
2018-01-15T20:36:03.711Z,4.90
2018-01-15T20:38:29.883Z,4.90
2018-01-15T20:40:56.056Z,4.90
2018-01-15T20:43:22.274Z,4.90
2018-01-15T20:45:48.512Z,4.80
2018-01-15T20:48:14.701Z,4.80
2018-01-15T20:50:41.643Z,4.80
2018-01-15T20:53:08.587Z,4.80
2018-01-15T20:55:35.538Z,4.80
2018-01-15T20:58:01.751Z,4.80
2018-01-15T21:00:27.964Z,4.80
2018-01-15T21:02:54.151Z,4.80
2018-01-15T21:05:21.356Z,4.80
2018-01-15T21:07:47.575Z,4.80
2018-01-15T21:10:14.509Z,4.80
2018-01-15T21:12:42.267Z,4.80
2018-01-15T21:15:09.200Z,4.80
2018-01-15T21:17:36.124Z,4.80
2018-01-15T21:20:02.356Z,4.80
2018-01-15T21:22:28.585Z,4.80
2018-01-15T21:24:54.805Z,4.80
2018-01-15T21:27:21.008Z,4.80
2018-01-15T21:29:47.956Z,4.80
2018-01-15T21:32:14.907Z,4.70
2018-01-15T21:34:41.844Z,4.70
2018-01-15T21:37:08.807Z,4.70
2018-01-15T21:39:34.979Z,4.70
2018-01-15T21:42:01.571Z,4.70
2018-01-15T21:44:27.795Z,4.70
2018-01-15T21:46:53.980Z,4.70
2018-01-15T21:49:20.192Z,4.70
2018-01-15T21:51:47.108Z,4.70
2018-01-15T21:54:13.308Z,4.60
2018-01-15T21:56:39.511Z,4.70
2018-01-15T21:59:05.712Z,4.60
2018-01-15T22:01:31.916Z,4.60
2018-01-15T22:03:58.168Z,4.70
2018-01-15T22:06:24.444Z,4.70
2018-01-15T22:08:50.677Z,4.70
2018-01-15T22:11:17.705Z,4.60
2018-01-15T22:13:43.900Z,4.60
2018-01-15T22:16:10.160Z,4.60
2018-01-15T22:18:36.363Z,4.60
2018-01-15T22:21:02.580Z,4.60
2018-01-15T22:23:28.763Z,4.60
2018-01-15T22:25:54.964Z,4.60
2018-01-15T22:28:21.175Z,4.50
2018-01-15T22:30:48.100Z,4.50
2018-01-15T22:33:14.308Z,4.50
2018-01-15T22:35:41.347Z,4.50
2018-01-15T22:38:07.579Z,4.50
2018-01-15T22:40:33.800Z,4.50
2018-01-15T22:43:00.015Z,4.50
2018-01-15T22:45:26.923Z,4.50
2018-01-15T22:47:53.207Z,4.50
2018-01-15T22:50:20.144Z,4.50
2018-01-15T22:52:47.086Z,4.50
2018-01-15T22:55:13.267Z,4.50
2018-01-15T22:57:39.462Z,4.50
2018-01-15T23:00:05.620Z,4.50
2018-01-15T23:02:31.803Z,4.50
2018-01-15T23:04:57.952Z,4.50
2018-01-15T23:07:24.335Z,4.60
2018-01-15T23:09:50.547Z,4.50
2018-01-15T23:12:16.755Z,4.60
2018-01-15T23:14:42.949Z,4.60
2018-01-15T23:17:09.158Z,4.60
2018-01-15T23:19:35.349Z,4.60
2018-01-15T23:22:01.532Z,4.60
2018-01-15T23:24:27.756Z,4.60
2018-01-15T23:26:54.660Z,4.70
2018-01-15T23:29:20.843Z,4.70
2018-01-15T23:31:47.059Z,4.70
2018-01-15T23:34:13.987Z,4.70
2018-01-15T23:36:40.164Z,4.70
2018-01-15T23:39:06.369Z,4.70
2018-01-15T23:41:32.523Z,4.70
2018-01-15T23:43:58.720Z,4.80
2018-01-15T23:46:24.935Z,4.80
2018-01-15T23:48:51.091Z,4.80
2018-01-15T23:51:17.284Z,4.90
2018-01-15T23:53:43.478Z,4.90
2018-01-15T23:56:10.403Z,5.00
2018-01-15T23:58:36.576Z,4.90
